Time;durP1;ratioP1;P1;durP2;ratioP2;P2;SDS_P1;SDS_P2;PMS_P1;PMS_P2;Temp;Humidity;BMP_temperature;BMP_pressure;BME280_temperature;BME280_humidity;BME280_pressure;Samples;Min_cycle;Max_cycle;Signal;HPM_P1;HPM_P2
2022/01/24 00:01:02;;;;;;;17.40;10.77;;;;;;;-3.11;92.90;95490.72;5054200;28;20205;-79
2022/01/24 00:03:29;;;;;;;17.42;11.40;;;;;;;-3.06;92.83;95483.75;5053039;28;20669;-79
2022/01/24 00:05:56;;;;;;;17.52;11.15;;;;;;;-3.03;92.68;95498.25;5002339;28;20206;-79
2022/01/24 00:08:25;;;;;;;19.45;11.93;;;;;;;-3.07;92.53;95504.31;5053524;28;20289;-79
2022/01/24 00:10:53;;;;;;;26.17;11.98;;;;;;;-3.00;93.05;95498.16;5053537;28;20206;-79
2022/01/24 00:16:15;;;;;;;17.35;11.50;;;;;;;-3.04;92.49;95506.81;5006498;28;20245;-79
2022/01/24 00:26:54;;;;;;;25.33;12.15;;;;;;;-3.16;93.01;95519.06;5053246;28;20272;-79
2022/01/24 00:29:23;;;;;;;17.55;9.95;;;;;;;-3.12;92.62;95517.25;5054103;28;20551;-79
2022/01/24 00:31:51;;;;;;;15.80;10.15;;;;;;;-2.93;92.58;95521.09;5053504;28;20634;-78
2022/01/24 00:34:18;;;;;;;18.35;10.85;;;;;;;-2.78;92.53;95527.63;5053740;28;20223;-79
2022/01/24 00:36:48;;;;;;;18.38;10.70;;;;;;;-2.61;91.87;95529.78;5053398;28;20207;-78
2022/01/24 00:39:16;;;;;;;13.75;10.13;;;;;;;-2.46;90.25;95526.84;5018081;28;20198;-79
2022/01/24 00:41:50;;;;;;;18.20;11.20;;;;;;;-2.32;89.32;95534.22;5053200;28;20199;-79
2022/01/24 00:47:05;;;;;;;16.17;11.23;;;;;;;-2.12;87.50;95532.00;5053439;28;20209;-79
2022/01/24 00:49:47;;;;;;;21.50;10.40;;;;;;;-2.00;86.25;95525.72;5053114;28;20233;-79
2022/01/24 00:55:03;;;;;;;19.42;11.63;;;;;;;-1.94;85.47;95539.25;5053115;28;20228;-79
2022/01/24 00:57:30;;;;;;;21.13;13.50;;;;;;;-2.01;85.26;95544.59;5053551;28;20210;-79
2022/01/24 00:59:57;;;;;;;17.30;12.18;;;;;;;-2.03;84.47;95536.91;5053098;28;20550;-79
2022/01/24 01:02:24;;;;;;;19.20;13.85;;;;;;;-1.99;85.09;95535.13;5053274;28;20207;-79
2022/01/24 01:05:09;;;;;;;20.52;12.50;;;;;;;-2.01;84.55;95535.16;5001710;28;20206;-79
2022/01/24 01:07:41;;;;;;;13.95;10.45;;;;;;;-2.12;83.58;95544.84;5053190;28;20194;-78
2022/01/24 01:18:23;;;;;;;14.80;9.88;;;;;;;-2.08;84.46;95537.91;5056851;28;20221;-79
2022/01/24 01:21:08;;;;;;;12.45;9.73;;;;;;;-2.07;84.73;95537.88;5057414;28;20213;-78
2022/01/24 01:23:38;;;;;;;13.90;9.02;;;;;;;-1.99;83.54;95527.41;5056885;28;20198;-79
2022/01/24 01:26:11;;;;;;;11.75;9.07;;;;;;;-2.08;82.76;95528.47;5060325;28;20269;-80
2022/01/24 01:28:41;;;;;;;13.82;10.32;;;;;;;-2.09;83.08;95525.94;5058495;28;20242;-79
2022/01/24 01:31:16;;;;;;;16.70;9.57;;;;;;;-2.16;84.58;95524.41;5057804;28;20230;-80
2022/01/24 01:33:54;;;;;;;19.92;10.55;;;;;;;-2.31;83.84;95526.50;5058314;28;20190;-81
2022/01/24 01:36:33;;;;;;;18.70;11.23;;;;;;;-2.41;83.56;95525.00;5058329;28;20207;-76
2022/01/24 01:53:04;;;;;;;19.80;11.25;;;;;;;-2.81;84.51;95522.56;4975247;28;20322;-80
2022/01/24 01:55:38;;;;;;;18.02;10.75;;;;;;;-2.88;84.77;95523.59;4975929;28;20333;-80
2022/01/24 01:58:08;;;;;;;18.67;11.07;;;;;;;-2.96;84.01;95526.28;4975178;28;20218;-78
2022/01/24 02:00:37;;;;;;;20.63;11.85;;;;;;;-3.02;84.15;95520.47;4975628;28;20201;-79
2022/01/24 02:03:04;;;;;;;19.42;11.70;;;;;;;-3.23;84.55;95522.59;4975484;28;20211;-80
2022/01/24 02:05:31;;;;;;;20.25;11.23;;;;;;;-3.25;85.61;95523.53;4975175;28;20205;-80
2022/01/24 02:07:58;;;;;;;17.40;10.70;;;;;;;-3.25;85.11;95524.38;4975110;28;20209;-80
2022/01/24 02:10:26;;;;;;;20.27;13.55;;;;;;;-3.23;84.81;95520.03;4975335;28;20206;-80
2022/01/24 02:12:55;;;;;;;16.60;13.13;;;;;;;-3.18;84.75;95525.94;4974837;28;20201;-80
2022/01/24 02:15:29;;;;;;;15.98;11.65;;;;;;;-3.09;83.89;95529.19;4974684;28;20221;-80
2022/01/24 02:18:06;;;;;;;20.33;11.55;;;;;;;-3.02;83.15;95531.56;4977861;28;20262;-80
2022/01/24 02:20:43;;;;;;;26.83;15.88;;;;;;;-2.94;82.98;95534.81;5007473;28;20724;-80
2022/01/24 02:23:38;;;;;;;19.23;12.60;;;;;;;-2.96;82.28;95530.59;5055859;28;20238;-76
2022/01/24 02:26:10;;;;;;;20.33;12.93;;;;;;;-2.89;81.59;95540.72;5055860;28;20275;-80
2022/01/24 02:28:49;;;;;;;18.90;10.70;;;;;;;-2.86;82.10;95552.63;5055563;28;20221;-82
2022/01/24 02:31:37;;;;;;;17.70;11.45;;;;;;;-2.82;81.45;95543.97;5055382;28;20830;-78
2022/01/24 02:34:04;;;;;;;17.75;11.07;;;;;;;-2.83;80.87;95547.44;5004171;28;20278;-79
2022/01/24 02:36:31;;;;;;;18.85;12.00;;;;;;;-2.84;81.28;95550.88;5055294;28;20211;-79
2022/01/24 02:39:11;;;;;;;22.77;12.05;;;;;;;-2.77;81.30;95547.28;5055172;28;20195;-80
2022/01/24 02:49:51;;;;;;;18.55;11.43;;;;;;;-2.83;82.63;95557.69;5054960;28;20229;-79
2022/01/24 02:52:18;;;;;;;17.08;11.45;;;;;;;-2.77;82.38;95557.56;5054877;28;20206;-76
2022/01/24 02:54:48;;;;;;;18.70;10.93;;;;;;;-2.70;82.04;95553.13;5055093;28;20230;-79
2022/01/24 02:57:15;;;;;;;15.82;11.45;;;;;;;-2.59;80.96;95561.44;5055162;28;20206;-80
2022/01/24 02:59:42;;;;;;;15.40;10.05;;;;;;;-2.47;80.54;95560.28;5055013;28;20195;-79
2022/01/24 03:02:09;;;;;;;14.70;11.57;;;;;;;-2.40;80.79;95572.09;5055072;28;20218;-79
2022/01/24 03:04:36;;;;;;;17.08;11.82;;;;;;;-2.33;80.46;95568.50;5003569;28;20203;-78
2022/01/24 03:07:03;;;;;;;17.20;11.77;;;;;;;-2.31;80.44;95564.19;5054774;28;20207;-78
2022/01/24 03:09:32;;;;;;;19.23;12.30;;;;;;;-2.22;80.59;95569.13;5054613;28;20668;-79
2022/01/24 03:12:07;;;;;;;18.08;12.23;;;;;;;-2.20;80.70;95580.19;5020158;28;20199;-79
2022/01/24 03:14:35;;;;;;;18.70;11.52;;;;;;;-2.24;79.84;95579.44;5054844;28;20294;-76
2022/01/24 03:17:04;;;;;;;18.92;11.52;;;;;;;-2.39;80.36;95584.06;5054423;28;20203;-79
2022/01/24 03:19:31;;;;;;;18.00;13.63;;;;;;;-2.56;80.18;95580.19;5054742;28;20195;-79
2022/01/24 03:21:58;;;;;;;14.60;11.52;;;;;;;-2.50;80.21;95585.19;5054421;28;20207;-79
2022/01/24 03:24:25;;;;;;;16.92;11.70;;;;;;;-2.65;80.55;95588.09;5054285;28;20206;-79
2022/01/24 03:26:52;;;;;;;18.00;13.65;;;;;;;-2.79;81.67;95589.28;5055023;28;20313;-79
2022/01/24 03:29:20;;;;;;;16.33;11.93;;;;;;;-2.76;82.12;95595.19;5054732;28;20199;-79
2022/01/24 03:31:47;;;;;;;19.85;13.40;;;;;;;-2.69;82.00;95596.75;5054963;28;20233;-78
2022/01/24 03:34:15;;;;;;;18.77;13.63;;;;;;;-2.65;82.19;95595.78;5054097;28;20210;-78
2022/01/24 03:36:43;;;;;;;18.75;11.95;;;;;;;-2.57;81.61;95599.06;5053962;28;20877;-79
2022/01/24 03:39:11;;;;;;;20.30;12.07;;;;;;;-2.48;81.82;95599.72;5053129;28;20259;-77
2022/01/24 03:41:39;;;;;;;18.75;13.20;;;;;;;-2.41;81.77;95608.97;5053959;28;20198;-78
2022/01/24 03:44:07;;;;;;;21.48;12.40;;;;;;;-2.58;82.15;95614.50;5054417;28;20566;-79
2022/01/24 03:46:49;;;;;;;23.77;13.38;;;;;;;-2.77;82.26;95621.75;5054051;28;20198;-76
2022/01/24 03:52:03;;;;;;;17.00;11.38;;;;;;;-2.81;84.41;95620.13;5053281;28;20202;-78
2022/01/24 03:54:30;;;;;;;18.42;12.32;;;;;;;-2.76;84.67;95620.88;5054187;28;20217;-79
2022/01/24 03:56:57;;;;;;;19.48;13.35;;;;;;;-2.67;85.10;95625.81;5054074;28;20610;-79
2022/01/24 03:59:24;;;;;;;40.72;18.50;;;;;;;-2.63;85.04;95626.56;5053748;28;20209;-79
2022/01/24 04:01:52;;;;;;;34.67;22.73;;;;;;;-2.58;85.00;95635.06;5053597;28;20205;-79
2022/01/24 04:04:19;;;;;;;32.17;19.85;;;;;;;-2.63;84.63;95632.56;5053999;28;20285;-79
2022/01/24 04:06:48;;;;;;;41.05;21.63;;;;;;;-2.68;85.35;95636.97;5053780;28;20211;-76
2022/01/24 04:09:15;;;;;;;25.40;17.60;;;;;;;-2.62;85.39;95641.09;5053546;28;20199;-79
2022/01/24 04:11:41;;;;;;;33.30;21.63;;;;;;;-2.59;85.69;95639.34;5054153;28;20199;-78
2022/01/24 04:14:26;;;;;;;29.85;18.30;;;;;;;-2.47;85.20;95639.94;5053832;28;20199;-79
2022/01/24 04:17:06;;;;;;;34.95;18.95;;;;;;;-2.35;84.91;95639.66;5023920;28;20226;-78
2022/01/24 04:22:17;;;;;;;30.10;19.00;;;;;;;-2.31;84.35;95641.31;5052710;28;20195;-79
2022/01/24 04:24:45;;;;;;;20.80;15.40;;;;;;;-2.33;84.85;95645.59;5018898;28;20207;-78
2022/01/24 04:27:13;;;;;;;25.65;17.50;;;;;;;-2.39;84.57;95645.75;5053428;28;20325;-79
2022/01/24 04:29:41;;;;;;;27.25;18.30;;;;;;;-2.54;85.25;95652.09;5053252;28;20218;-79
2022/01/24 04:32:11;;;;;;;28.42;17.42;;;;;;;-2.63;85.53;95652.25;5053521;28;20313;-79
2022/01/24 04:34:39;;;;;;;30.65;18.90;;;;;;;-2.79;85.92;95656.91;5053643;28;20206;-79
2022/01/24 04:37:06;;;;;;;40.10;22.75;;;;;;;-2.82;86.50;95660.38;5053012;28;20696;-79
2022/01/24 04:39:33;;;;;;;41.28;25.55;;;;;;;-2.90;87.08;95664.81;5001621;28;20234;-78
2022/01/24 04:42:07;;;;;;;48.95;27.58;;;;;;;-3.00;87.37;95647.06;5053527;28;20213;-79
2022/01/24 04:44:51;;;;;;;47.35;25.90;;;;;;;-3.02;86.89;95664.22;5053455;28;20216;-78
2022/01/24 04:47:26;;;;;;;60.33;30.67;;;;;;;-3.02;87.03;95672.75;5053536;28;20199;-79
2022/01/24 04:52:45;;;;;;;48.95;31.00;;;;;;;-3.00;90.02;95671.00;5057346;28;20316;-79
2022/01/24 04:55:13;;;;;;;41.50;26.83;;;;;;;-3.03;88.84;95677.94;5057176;28;20262;-78
2022/01/24 04:57:40;;;;;;;66.65;34.53;;;;;;;-3.08;88.10;95672.88;5057832;28;20199;-78
2022/01/24 05:00:10;;;;;;;62.75;36.25;;;;;;;-3.03;87.87;95681.34;5056878;28;20295;-79
2022/01/24 05:02:39;;;;;;;92.85;48.10;;;;;;;-3.19;86.93;95685.91;5057008;28;20199;-79
2022/01/24 05:05:10;;;;;;;109.65;49.70;;;;;;;-3.40;87.34;95699.16;5056950;28;20642;-78
2022/01/24 05:07:37;;;;;;;140.57;56.65;;;;;;;-3.47;87.63;95692.41;5023466;28;20256;-79
2022/01/24 05:10:13;;;;;;;90.38;43.08;;;;;;;-3.68;87.86;95687.69;5005731;28;20225;-79
2022/01/24 05:23:37;;;;;;;53.42;29.45;;;;;;;-3.76;88.93;95722.00;5056948;28;20333;-80
2022/01/24 05:26:05;;;;;;;50.78;27.50;;;;;;;-3.76;88.60;95722.00;5057106;28;20199;-79
2022/01/24 05:28:34;;;;;;;50.22;28.88;;;;;;;-3.83;87.98;95733.19;5056992;28;20203;-80
2022/01/24 05:31:01;;;;;;;52.70;31.45;;;;;;;-3.82;87.78;95740.00;5056664;28;20234;-81
2022/01/24 05:33:30;;;;;;;47.67;27.30;;;;;;;-3.69;87.79;95747.53;5056535;28;20207;-80
2022/01/24 05:35:58;;;;;;;51.25;27.42;;;;;;;-3.56;87.69;95746.44;5056966;28;20227;-80
2022/01/24 05:38:25;;;;;;;58.25;32.30;;;;;;;-3.48;87.38;95748.00;5021748;28;20203;-80
2022/01/24 05:40:52;;;;;;;62.35;32.20;;;;;;;-3.35;86.92;95753.78;5056473;28;20205;-80
2022/01/24 05:43:19;;;;;;;60.33;34.40;;;;;;;-3.25;85.50;95757.88;5056638;28;20207;-79
2022/01/24 05:45:46;;;;;;;53.67;32.05;;;;;;;-3.12;85.49;95761.94;5056644;28;20207;-80
2022/01/24 05:48:13;;;;;;;57.47;29.17;;;;;;;-3.12;85.42;95772.22;5004612;28;20199;-81
2022/01/24 05:50:41;;;;;;;68.75;28.45;;;;;;;-3.13;85.70;95777.38;5039166;28;20203;-80
2022/01/24 05:53:08;;;;;;;53.95;26.13;;;;;;;-3.08;85.46;95777.28;5001683;28;20304;-80
2022/01/24 05:55:35;;;;;;;53.30;28.30;;;;;;;-3.08;85.21;95782.41;5001557;28;20231;-80
2022/01/24 05:58:02;;;;;;;55.88;26.70;;;;;;;-3.00;85.29;95783.97;5001325;28;20207;-81
2022/01/24 06:00:29;;;;;;;40.15;22.88;;;;;;;-3.03;85.18;95790.88;5036228;28;20275;-80
2022/01/24 06:02:56;;;;;;;52.58;24.10;;;;;;;-2.96;85.51;95790.72;5035206;28;20274;-80
2022/01/24 06:05:23;;;;;;;44.03;23.85;;;;;;;-2.87;84.92;95795.72;5034847;28;20203;-80
2022/01/24 06:07:51;;;;;;;34.88;22.75;;;;;;;-2.81;84.71;95805.03;5034686;28;20681;-80
2022/01/24 06:10:18;;;;;;;53.05;24.38;;;;;;;-2.89;84.67;95809.44;5035158;28;20200;-79
2022/01/24 06:12:45;;;;;;;88.85;36.92;;;;;;;-3.08;82.60;95821.75;5034794;28;20196;-80
2022/01/24 06:15:12;;;;;;;66.22;30.67;;;;;;;-3.01;84.00;95827.63;5035139;28;20203;-76
2022/01/24 06:17:39;;;;;;;48.75;18.45;;;;;;;-3.21;80.24;95822.81;5036175;28;20532;-78
2022/01/24 06:20:07;;;;;;;28.77;16.27;;;;;;;-3.26;80.37;95827.19;5035786;28;20207;-77
2022/01/24 06:22:36;;;;;;;34.47;19.80;;;;;;;-3.20;80.11;95833.06;5047260;28;20202;-78
2022/01/24 06:25:06;;;;;;;54.47;24.75;;;;;;;-3.19;79.72;95831.34;5055535;28;20203;-77
2022/01/24 06:27:33;;;;;;;37.60;17.27;;;;;;;-3.09;79.90;95832.06;5055648;28;20205;-78
2022/01/24 06:30:00;;;;;;;243.15;70.43;;;;;;;-3.03;77.74;95839.66;5055828;28;20219;-78
2022/01/24 06:32:26;;;;;;;114.47;37.20;;;;;;;-2.90;77.70;95843.69;5055962;28;20584;-78
2022/01/24 06:34:53;;;;;;;62.95;25.48;;;;;;;-2.88;77.25;95840.25;5055579;28;20207;-77
2022/01/24 06:37:20;;;;;;;65.05;32.63;;;;;;;-2.85;77.32;95844.47;5004178;28;20222;-77
2022/01/24 06:39:47;;;;;;;53.10;27.92;;;;;;;-2.87;77.25;95839.38;5055314;28;20217;-78
2022/01/24 06:42:22;;;;;;;58.65;27.98;;;;;;;-2.79;77.20;95849.50;5055759;28;20198;-77
2022/01/24 06:44:49;;;;;;;42.70;24.08;;;;;;;-2.76;77.27;95853.75;5055460;28;20210;-77
2022/01/24 06:47:16;;;;;;;39.05;20.88;;;;;;;-2.79;77.56;95857.22;5054816;28;20183;-79
2022/01/24 06:49:43;;;;;;;35.45;19.15;;;;;;;-2.86;77.21;95853.06;5054911;28;20205;-76
2022/01/24 06:52:10;;;;;;;32.30;19.10;;;;;;;-2.98;77.56;95848.13;5055217;28;20237;-77
2022/01/24 06:54:41;;;;;;;39.72;22.85;;;;;;;-2.97;78.17;95860.06;5054254;28;20442;-76
2022/01/24 06:57:09;;;;;;;46.70;26.80;;;;;;;-2.95;78.14;95860.91;5054962;28;20594;-76
2022/01/24 06:59:38;;;;;;;67.68;35.00;;;;;;;-2.83;78.64;95859.00;5055153;28;20210;-78
2022/01/24 07:02:05;;;;;;;53.03;29.95;;;;;;;-2.75;77.71;95858.84;5055059;28;20206;-76
2022/01/24 07:04:32;;;;;;;63.15;30.15;;;;;;;-2.72;76.62;95865.66;5054712;28;20237;-78
2022/01/24 07:07:05;;;;;;;111.70;44.50;;;;;;;-2.67;76.33;95864.69;5054919;28;20656;-77
2022/01/24 07:09:32;;;;;;;65.00;33.05;;;;;;;-2.67;75.84;95874.97;5054581;28;20572;-77
2022/01/24 07:11:58;;;;;;;51.47;24.73;;;;;;;-2.54;75.55;95871.31;5054734;28;20202;-79
2022/01/24 07:14:35;;;;;;;27.00;15.88;;;;;;;-2.54;72.43;95879.03;5054484;28;20198;-78
2022/01/24 07:17:28;;;;;;;31.58;17.58;;;;;;;-2.41;72.16;95884.75;5054948;28;20229;-77
2022/01/24 07:19:55;;;;;;;17.00;11.82;;;;;;;-2.25;71.13;95882.78;5027477;28;20289;-77
2022/01/24 07:22:22;;;;;;;16.10;10.10;;;;;;;-2.03;70.27;95893.47;5043070;28;20209;-78
2022/01/24 07:24:49;;;;;;;17.63;9.88;;;;;;;-2.00;69.25;95889.13;5035308;28;20199;-78
2022/01/24 07:27:16;;;;;;;14.18;9.05;;;;;;;-2.19;67.17;95896.34;4999694;28;20556;-78
2022/01/24 07:29:43;;;;;;;15.40;11.15;;;;;;;-2.02;68.38;95897.75;5034634;28;20281;-78
2022/01/24 07:32:13;;;;;;;20.40;11.90;;;;;;;-1.97;68.10;95901.06;5034682;28;20917;-77
2022/01/24 07:34:40;;;;;;;17.75;13.05;;;;;;;-2.13;67.01;95908.22;5034555;28;20202;-78
2022/01/24 07:37:07;;;;;;;24.38;12.55;;;;;;;-2.04;67.72;95913.19;5034235;28;20595;-77
2022/01/24 07:39:34;;;;;;;24.35;15.50;;;;;;;-1.96;67.94;95908.75;5034213;28;20210;-78
2022/01/24 07:42:14;;;;;;;17.35;12.80;;;;;;;-1.96;67.99;95907.91;5034760;28;20203;-78
2022/01/24 07:44:50;;;;;;;25.00;15.93;;;;;;;-2.01;67.17;95909.72;5033388;28;20491;-78
2022/01/24 07:47:18;;;;;;;26.67;15.68;;;;;;;-1.87;68.16;95913.72;5034513;28;20209;-77
2022/01/24 07:49:45;;;;;;;20.48;12.73;;;;;;;-1.84;67.25;95911.94;5034027;28;20203;-77
2022/01/24 07:52:12;;;;;;;32.28;16.38;;;;;;;-1.85;66.72;95918.81;4982642;28;20199;-76
2022/01/24 07:54:39;;;;;;;60.47;29.08;;;;;;;-1.85;66.56;95921.38;5033956;28;20207;-75
2022/01/24 07:57:06;;;;;;;27.17;13.70;;;;;;;-1.97;66.13;95937.06;5033966;28;20223;-76
2022/01/24 07:59:33;;;;;;;25.65;12.75;;;;;;;-2.04;65.79;95941.47;5034054;28;20681;-77
2022/01/24 08:02:00;;;;;;;21.13;11.10;;;;;;;-2.16;65.34;95939.13;5033557;28;20210;-76
2022/01/24 08:04:28;;;;;;;18.00;9.73;;;;;;;-2.26;64.75;95943.63;5033679;28;20199;-77
2022/01/24 08:06:55;;;;;;;16.25;10.98;;;;;;;-2.38;65.63;95942.97;5033404;28;20215;-76
2022/01/24 08:09:22;;;;;;;13.90;10.35;;;;;;;-2.30;66.49;95943.69;4982663;28;20549;-76
2022/01/24 08:11:49;;;;;;;18.20;9.43;;;;;;;-2.22;66.62;95944.41;4998575;28;20290;-76
2022/01/24 08:14:15;;;;;;;12.80;7.80;;;;;;;-2.24;65.91;95953.88;5032836;28;20199;-77
2022/01/24 08:16:43;;;;;;;15.50;8.55;;;;;;;-2.32;66.96;95953.13;5032479;28;20228;-76
2022/01/24 08:19:10;;;;;;;13.38;9.02;;;;;;;-2.26;68.31;95955.63;4982008;28;20200;-77
2022/01/24 08:21:38;;;;;;;18.15;10.90;;;;;;;-2.09;67.63;95963.84;4986475;28;20556;-77
2022/01/24 08:24:07;;;;;;;17.70;11.00;;;;;;;-2.10;67.78;95961.31;4995816;28;20294;-79
2022/01/24 08:26:34;;;;;;;18.00;10.40;;;;;;;-1.98;69.05;95953.38;4986686;28;20210;-77
2022/01/24 08:29:01;;;;;;;12.77;6.90;;;;;;;-1.98;67.24;95969.66;4986205;28;20214;-77
2022/01/24 08:31:28;;;;;;;13.43;9.05;;;;;;;-1.98;67.64;95976.53;5037681;28;20235;-76
2022/01/24 08:33:55;;;;;;;17.73;10.27;;;;;;;-1.87;67.40;95972.88;5002928;28;20203;-75
2022/01/24 08:36:22;;;;;;;15.45;8.93;;;;;;;-1.72;67.08;95981.19;5053127;28;20238;-77
2022/01/24 08:38:51;;;;;;;18.55;10.00;;;;;;;-1.63;65.53;95989.56;5049925;28;20199;-78
2022/01/24 08:41:25;;;;;;;20.02;12.70;;;;;;;-1.50;65.87;95979.84;4985230;28;20249;-75
2022/01/24 08:43:58;;;;;;;28.73;13.65;;;;;;;-1.56;64.53;95985.13;5043745;28;20221;-74
2022/01/24 08:46:26;;;;;;;16.50;7.68;;;;;;;-1.67;64.55;95993.06;5037289;28;20257;-77
2022/01/24 08:48:53;;;;;;;11.60;8.13;;;;;;;-1.47;63.67;95982.34;5033201;28;20199;-77
2022/01/24 08:51:20;;;;;;;19.08;11.43;;;;;;;-1.22;64.05;95982.69;5033137;28;20531;-76
2022/01/24 08:53:47;;;;;;;13.98;9.55;;;;;;;-1.28;63.28;95980.25;5032567;28;20980;-77
2022/01/24 08:56:16;;;;;;;24.40;12.00;;;;;;;-1.08;64.01;95983.25;5035027;28;20445;-79
2022/01/24 08:58:43;;;;;;;13.93;8.98;;;;;;;-0.75;63.25;95989.38;5043054;28;20285;-77
2022/01/24 09:01:10;;;;;;;17.75;10.20;;;;;;;-0.73;63.48;95984.19;5052941;28;20199;-76
2022/01/24 09:03:39;;;;;;;10.18;7.38;;;;;;;-0.51;61.02;95990.53;5052803;28;20648;-77
2022/01/24 09:06:08;;;;;;;17.52;10.38;;;;;;;-0.28;61.12;95991.72;5037376;28;20244;-78
2022/01/24 09:08:35;;;;;;;15.85;11.13;;;;;;;-0.08;61.80;95992.03;5035418;28;20202;-78
2022/01/24 09:11:03;;;;;;;14.82;8.82;;;;;;;-0.24;59.50;95999.31;5033013;28;20208;-78
2022/01/24 09:13:32;;;;;;;13.57;7.50;;;;;;;-0.23;57.80;96001.00;5013435;28;20307;-78
2022/01/24 09:16:00;;;;;;;14.00;8.25;;;;;;;-0.19;59.49;95999.19;5033209;28;20212;-78
2022/01/24 09:18:27;;;;;;;16.73;10.20;;;;;;;-0.29;57.57;95998.56;5032891;28;20686;-78
2022/01/24 09:20:54;;;;;;;11.82;8.05;;;;;;;-0.37;58.21;95997.91;5045160;28;20209;-79
2022/01/24 09:23:22;;;;;;;10.52;7.72;;;;;;;-0.55;56.08;95994.06;5036423;28;20218;-79
2022/01/24 09:25:50;;;;;;;18.58;9.63;;;;;;;-0.22;56.93;95997.53;5033189;28;20205;-78
2022/01/24 09:28:17;;;;;;;11.15;8.55;;;;;;;-0.19;57.21;95997.47;5033055;28;20294;-78
2022/01/24 09:30:46;;;;;;;7.55;6.32;;;;;;;-0.19;54.28;95994.03;4997898;28;20663;-78
2022/01/24 09:33:13;;;;;;;12.30;7.45;;;;;;;-0.01;55.52;95999.56;5037990;28;20214;-78
2022/01/24 09:35:40;;;;;;;11.85;8.27;;;;;;;0.10;56.23;95993.28;5052933;28;20204;-79
2022/01/24 09:38:07;;;;;;;9.88;7.25;;;;;;;0.03;55.99;95994.34;5050381;28;20228;-78
2022/01/24 09:40:34;;;;;;;11.27;6.68;;;;;;;-0.30;57.40;95991.72;5044083;28;20208;-78
2022/01/24 09:43:01;;;;;;;11.30;7.25;;;;;;;-0.57;55.96;95995.84;5038785;28;20557;-77
2022/01/24 09:45:28;;;;;;;9.90;6.95;;;;;;;-0.91;56.21;95985.44;5072895;28;20201;-76
2022/01/24 09:47:58;;;;;;;8.43;6.53;;;;;;;-1.05;57.20;95987.50;5076654;28;20206;-76
2022/01/24 09:50:26;;;;;;;8.00;6.70;;;;;;;-1.46;56.62;95991.78;5066637;28;20213;-77
2022/01/24 09:52:53;;;;;;;11.77;6.97;;;;;;;-1.57;57.65;95992.00;5021033;28;20210;-76
2022/01/24 09:55:22;;;;;;;14.45;7.63;;;;;;;-1.48;58.79;95983.22;5021200;28;20646;-76
2022/01/24 09:57:49;;;;;;;12.75;6.95;;;;;;;-1.49;57.40;95985.84;5019724;28;20594;-77
2022/01/24 10:00:19;;;;;;;14.40;8.18;;;;;;;-1.42;58.06;95977.97;5038143;28;20210;-77
2022/01/24 10:02:49;;;;;;;16.80;10.65;;;;;;;-1.53;59.79;95977.34;5042880;28;20657;-78
2022/01/24 10:05:20;;;;;;;16.02;8.65;;;;;;;-1.44;59.95;95969.44;5015810;28;20195;-77
2022/01/24 10:07:51;;;;;;;12.68;8.63;;;;;;;-1.62;59.46;95968.09;5051387;28;20199;-78
2022/01/24 10:10:31;;;;;;;11.02;8.10;;;;;;;-1.72;59.74;95978.59;5036182;28;20203;-78
2022/01/24 10:16:29;;;;;;;18.75;7.43;;;;;;;-1.87;60.12;95975.44;4994936;28;20204;-77
2022/01/24 10:19:07;;;;;;;18.70;11.10;;;;;;;-1.74;59.03;95972.63;4985902;28;20219;-78
2022/01/24 10:21:40;;;;;;;12.32;9.88;;;;;;;-1.76;59.20;95972.66;4974477;28;20208;-76
2022/01/24 10:24:07;;;;;;;14.43;8.48;;;;;;;-1.87;59.64;95985.72;4992616;28;20707;-78
2022/01/24 10:26:34;;;;;;;10.55;8.20;;;;;;;-1.94;59.20;95981.59;4992967;28;20204;-78
2022/01/24 10:29:01;;;;;;;20.98;8.95;;;;;;;-1.88;59.61;95986.59;4992919;28;20201;-78
2022/01/24 10:31:29;;;;;;;13.93;7.60;;;;;;;-1.93;56.78;95980.69;4992574;28;20236;-78
2022/01/24 10:34:04;;;;;;;9.68;7.30;;;;;;;-1.71;58.13;95975.16;4989922;28;20708;-77
2022/01/24 10:36:37;;;;;;;12.48;7.45;;;;;;;-1.51;56.17;95977.31;4909539;28;20599;-77
2022/01/24 10:39:15;;;;;;;11.70;7.97;;;;;;;-1.67;56.45;95977.63;4957367;28;20668;-78
2022/01/24 10:41:57;;;;;;;9.50;6.90;;;;;;;-1.67;57.24;95976.78;4955299;28;20265;-77
2022/01/24 10:44:29;;;;;;;12.25;8.00;;;;;;;-1.85;59.23;95984.84;4963391;28;20202;-78
2022/01/24 10:47:12;;;;;;;18.58;8.13;;;;;;;-2.04;59.35;95985.19;4954658;28;20329;-79
2022/01/24 10:49:40;;;;;;;12.80;8.95;;;;;;;-2.05;59.64;95990.34;4966067;28;20457;-78
2022/01/24 10:52:11;;;;;;;19.65;11.20;;;;;;;-1.97;61.04;95984.22;4980697;28;20313;-79
2022/01/24 10:54:41;;;;;;;10.68;8.10;;;;;;;-2.01;61.50;95987.72;5029953;28;20196;-78
2022/01/24 10:57:08;;;;;;;14.52;9.95;;;;;;;-1.89;61.90;95982.34;5049136;28;20226;-76
2022/01/24 10:59:36;;;;;;;14.40;8.02;;;;;;;-2.08;63.38;95982.69;5036678;28;20206;-78
2022/01/24 11:02:04;;;;;;;14.75;9.50;;;;;;;-1.89;64.70;95979.75;5020156;28;20250;-78
2022/01/24 11:04:33;;;;;;;17.13;11.75;;;;;;;-1.80;64.64;95975.31;5036680;28;20294;-78
2022/01/24 11:07:02;;;;;;;13.73;8.15;;;;;;;-1.77;64.56;95988.13;5055113;28;20701;-80
2022/01/24 11:09:31;;;;;;;14.13;8.35;;;;;;;-1.93;64.41;95974.72;5054859;28;20213;-78
2022/01/24 11:12:00;;;;;;;11.73;6.88;;;;;;;-2.39;67.94;95975.53;5055137;28;20192;-77
2022/01/24 11:14:31;;;;;;;9.80;6.43;;;;;;;-2.82;71.05;95983.94;5033636;28;20207;-78
2022/01/24 11:16:59;;;;;;;12.93;6.55;;;;;;;-2.76;71.82;95980.44;5015471;28;20207;-77
2022/01/24 11:19:30;;;;;;;10.88;6.38;;;;;;;-2.78;72.94;95977.03;5014307;28;20208;-77
2022/01/24 11:21:59;;;;;;;14.60;8.10;;;;;;;-2.71;74.20;95976.06;4997173;28;20659;-77
2022/01/24 11:24:37;;;;;;;12.60;9.65;;;;;;;-2.58;73.56;95975.00;5014458;28;20200;-78
2022/01/24 11:27:08;;;;;;;13.63;9.20;;;;;;;-2.66;74.88;95981.97;5014549;28;20216;-78
2022/01/24 11:29:36;;;;;;;13.10;8.98;;;;;;;-2.59;75.99;95977.59;5014083;28;20208;-77
2022/01/24 11:32:19;;;;;;;16.77;10.43;;;;;;;-2.51;76.38;95976.59;5026501;28;20239;-77
2022/01/24 11:34:50;;;;;;;13.35;8.82;;;;;;;-2.20;75.95;95976.06;5034112;28;20526;-76
2022/01/24 11:37:34;;;;;;;14.57;10.05;;;;;;;-2.04;74.89;95972.31;5033902;28;20238;-77
2022/01/24 11:40:01;;;;;;;18.05;9.98;;;;;;;-1.92;73.52;95979.81;5033580;28;20630;-77
2022/01/24 11:42:33;;;;;;;12.50;9.18;;;;;;;-1.93;71.86;95979.84;5034304;28;20199;-77
2022/01/24 11:45:05;;;;;;;15.85;9.50;;;;;;;-1.84;72.58;95984.81;5033874;28;20286;-77
2022/01/24 11:47:32;;;;;;;17.48;10.82;;;;;;;-1.95;69.65;95987.59;5033758;28;20298;-77
2022/01/24 11:50:00;;;;;;;16.83;9.70;;;;;;;-1.90;71.05;95984.94;5033815;28;20214;-81
2022/01/24 11:52:32;;;;;;;16.63;10.40;;;;;;;-1.88;70.06;95976.31;5034026;28;20226;-79
2022/01/24 11:55:14;;;;;;;17.05;9.35;;;;;;;-1.84;69.32;95987.38;5034759;28;20235;-77
2022/01/24 11:57:45;;;;;;;12.05;8.05;;;;;;;-2.21;66.11;95987.22;5033840;28;20219;-79
2022/01/24 12:00:18;;;;;;;19.08;11.07;;;;;;;-2.35;66.86;95982.31;5033134;28;20199;-77
2022/01/24 12:02:47;;;;;;;14.55;9.00;;;;;;;-2.47;66.69;95986.81;5034207;28;20226;-77
2022/01/24 12:05:16;;;;;;;17.67;10.45;;;;;;;-2.64;67.13;95990.50;5034522;28;20199;-77
2022/01/24 12:07:45;;;;;;;8.80;6.55;;;;;;;-2.90;65.50;95990.91;5033547;28;20208;-77
2022/01/24 12:10:48;;;;;;;13.88;8.73;;;;;;;-2.97;65.53;95994.44;5033735;28;20208;-77
2022/01/24 12:13:26;;;;;;;13.90;7.68;;;;;;;-3.00;65.37;95996.19;5033665;28;20221;-78
2022/01/24 12:15:59;;;;;;;14.48;9.77;;;;;;;-2.90;65.68;95992.63;5033613;28;20199;-77
2022/01/24 12:18:52;;;;;;;17.52;10.57;;;;;;;-2.68;64.75;95994.00;5033827;28;20234;-77
2022/01/24 12:21:23;;;;;;;14.98;8.88;;;;;;;-2.64;64.38;95990.50;5033731;28;20207;-78
2022/01/24 12:23:52;;;;;;;15.63;8.73;;;;;;;-2.61;63.15;95997.31;5033416;28;20708;-76
2022/01/24 12:26:32;;;;;;;12.57;8.50;;;;;;;-2.50;62.53;96003.13;5033092;28;20203;-78
2022/01/24 12:29:03;;;;;;;16.92;11.55;;;;;;;-2.46;63.26;95993.66;5032954;28;20211;-78
2022/01/24 12:31:34;;;;;;;25.23;14.75;;;;;;;-2.55;64.56;95992.94;5033251;28;20231;-78
2022/01/24 12:34:14;;;;;;;11.48;7.15;;;;;;;-2.88;62.41;95991.75;5033551;28;20215;-77
2022/01/24 12:37:12;;;;;;;16.50;10.38;;;;;;;-2.85;64.75;95998.56;5049255;28;20207;-78
2022/01/24 12:40:00;;;;;;;14.32;9.90;;;;;;;-3.00;64.72;96007.31;4972238;28;20288;-78
2022/01/24 12:42:37;;;;;;;17.27;11.43;;;;;;;-2.92;65.07;96010.63;4973018;28;20284;-79